Skip to main content

Aldeia Souto (Q. Lageosa)

ID 1210690 · 40.3543, -7.3893 map

Latest reading · 2026-05-09 19:00 (Europe/Lisbon)

Temperature
11.4 °C
Humidity
88 %
Pressure
Precipitation
3.0 mm
Radiation
120 W/m²
Wind speed
5.4 km/h
Wind direction
SW · South-west

24-hour history

Time (Europe/Lisbon) Temp Humidity Pressure Rain Wind Dir
2026-05-09 19:00 11.4 °C 88 % 3.0 mm 5.4 km/h SW
2026-05-09 18:00 12.1 °C 81 % 1.4 mm 2.9 km/h SW
2026-05-09 17:00 13.3 °C 80 % 0.0 mm 7.9 km/h SW
2026-05-09 16:00 12.1 °C 80 % 0.0 mm 4.3 km/h NE
2026-05-09 15:00 10.4 °C 90 % 0.7 mm 5.4 km/h NE
2026-05-09 14:00 11.5 °C 90 % 4.8 mm 5.0 km/h SE
2026-05-09 13:00 12.2 °C 89 % 0.3 mm 6.8 km/h S
2026-05-09 12:00 11.6 °C 86 % 0.9 mm 7.2 km/h S
2026-05-09 11:00 11.2 °C 84 % 1.2 mm 5.0 km/h S
2026-05-09 10:00 12.1 °C 76 % 0.2 mm 7.6 km/h S
2026-05-09 09:00 12.8 °C 69 % 0.0 mm 7.6 km/h SE
2026-05-09 08:00 12.1 °C 72 % 0.0 mm 4.0 km/h S
2026-05-09 07:00 11.3 °C 79 % 0.0 mm 3.2 km/h SW
2026-05-09 06:00 10.7 °C 84 % 0.0 mm 4.3 km/h S
2026-05-09 05:00 11.5 °C 82 % 0.0 mm 6.1 km/h SW
2026-05-09 04:00 11.8 °C 80 % 0.0 mm 3.2 km/h S
2026-05-09 03:00 12.1 °C 76 % 0.0 mm 1.8 km/h S
2026-05-09 02:00 12.5 °C 73 % 0.0 mm 4.7 km/h S
2026-05-09 01:00 12.6 °C 70 % 0.0 mm 7.9 km/h S
2026-05-09 00:00 12.4 °C 70 % 0.0 mm 5.4 km/h SW
2026-05-08 23:00 12.2 °C 71 % 0.0 mm 1.8 km/h S
2026-05-08 22:00 12.7 °C 70 % 0.0 mm 1.8 km/h NW
2026-05-08 21:00 13.3 °C 65 % 0.0 mm 1.1 km/h N
2026-05-08 20:00 14.7 °C 58 % 0.0 mm 2.9 km/h W